createdAt,value
2018-12-07T00:01:02.448Z,99.99
2018-12-07T00:02:12.275Z,99.99
2018-12-07T00:03:22.336Z,99.99
2018-12-07T00:04:32.144Z,99.99
2018-12-07T00:05:42.223Z,99.99
2018-12-07T00:06:52.302Z,99.99
2018-12-07T00:08:02.927Z,99.99
2018-12-07T00:09:12.992Z,99.99
2018-12-07T00:10:23.082Z,99.99
2018-12-07T00:11:33.246Z,99.99
2018-12-07T00:12:43.373Z,99.99
2018-12-07T00:13:53.478Z,99.99
2018-12-07T00:15:03.276Z,99.99
2018-12-07T00:16:13.079Z,99.99
2018-12-07T00:17:23.143Z,99.99
2018-12-07T00:18:34.111Z,99.99
2018-12-07T00:19:50.489Z,99.99
2018-12-07T00:21:00.628Z,99.99
2018-12-07T00:22:10.436Z,99.99
2018-12-07T00:23:20.521Z,99.99
2018-12-07T00:24:30.582Z,99.99
2018-12-07T00:25:40.619Z,99.99
2018-12-07T00:26:50.420Z,99.99
2018-12-07T00:28:02.834Z,99.99
2018-12-07T00:29:12.906Z,99.99
2018-12-07T00:30:23.003Z,99.99
2018-12-07T00:31:33.083Z,99.99
2018-12-07T00:32:43.145Z,99.99
2018-12-07T00:33:53.205Z,99.99
2018-12-07T00:35:03.645Z,99.99
2018-12-07T00:36:13.756Z,99.99
2018-12-07T00:37:23.802Z,99.99
2018-12-07T00:38:33.853Z,99.99
2018-12-07T00:39:43.644Z,99.99
2018-12-07T00:40:53.455Z,99.99
2018-12-07T00:42:03.613Z,99.99
2018-12-07T00:43:13.436Z,99.99
2018-12-07T00:44:23.517Z,99.99
2018-12-07T00:45:33.581Z,99.99
2018-12-07T00:46:43.424Z,99.99
2018-12-07T00:47:53.221Z,99.99
2018-12-07T00:49:03.308Z,99.99
2018-12-07T00:50:13.117Z,99.99
2018-12-07T00:51:23.221Z,99.99
2018-12-07T00:52:33.050Z,99.99
2018-12-07T00:53:43.114Z,99.99
2018-12-07T00:54:52.916Z,99.99
2018-12-07T00:56:02.987Z,99.99
2018-12-07T00:57:12.575Z,99.99
2018-12-07T00:58:22.670Z,99.99
2018-12-07T00:59:32.741Z,99.99
2018-12-07T01:00:42.531Z,99.99
2018-12-07T01:01:52.596Z,99.99
2018-12-07T01:03:02.398Z,99.99
2018-12-07T01:04:12.504Z,99.99
2018-12-07T01:05:22.625Z,99.99
2018-12-07T01:06:32.449Z,99.99
2018-12-07T01:07:42.522Z,99.99
2018-12-07T01:08:52.358Z,99.99
2018-12-07T01:10:02.503Z,99.99
2018-12-07T01:11:12.567Z,99.99
2018-12-07T01:12:22.650Z,99.99
2018-12-07T01:13:32.514Z,99.99
2018-12-07T01:14:42.583Z,99.99
2018-12-07T01:15:52.442Z,99.99
2018-12-07T01:17:02.504Z,99.99
2018-12-07T01:18:12.330Z,99.99
2018-12-07T01:19:22.494Z,99.99
2018-12-07T01:20:32.562Z,99.99
2018-12-07T01:21:42.709Z,99.99
2018-12-07T01:22:52.788Z,99.99
2018-12-07T01:24:02.835Z,99.99
2018-12-07T01:25:12.897Z,99.99
2018-12-07T01:26:22.980Z,99.99
2018-12-07T01:27:33.634Z,99.99
2018-12-07T01:28:43.451Z,99.99
2018-12-07T01:29:53.500Z,99.99
2018-12-07T01:31:06.887Z,99.99
2018-12-07T01:32:16.712Z,99.99
2018-12-07T01:33:26.865Z,99.99
2018-12-07T01:34:36.924Z,99.99
2018-12-07T01:35:46.987Z,99.99
2018-12-07T01:36:57.058Z,99.99
2018-12-07T01:38:07.123Z,99.99
2018-12-07T01:39:17.212Z,99.99
2018-12-07T01:40:27.103Z,99.99
2018-12-07T01:41:36.647Z,99.99
2018-12-07T01:42:46.703Z,99.99
2018-12-07T01:43:56.772Z,99.99
2018-12-07T01:45:06.583Z,99.99
2018-12-07T01:46:16.380Z,99.99
2018-12-07T01:47:26.435Z,99.99
2018-12-07T01:48:36.481Z,99.99
2018-12-07T01:49:46.537Z,99.99
2018-12-07T01:50:56.137Z,99.99
2018-12-07T01:52:06.211Z,99.99
2018-12-07T01:53:16.271Z,99.99
2018-12-07T01:54:26.343Z,99.99
2018-12-07T01:55:36.379Z,99.99
2018-12-07T01:56:46.441Z,99.99
2018-12-07T01:57:56.484Z,99.99
2018-12-07T01:59:06.284Z,99.99
2018-12-07T02:00:15.827Z,99.99
2018-12-07T02:01:25.883Z,99.99
2018-12-07T02:02:35.942Z,99.99
2018-12-07T02:03:45.991Z,99.99
2018-12-07T02:04:55.788Z,99.99
2018-12-07T02:06:05.844Z,99.99
2018-12-07T02:07:15.638Z,99.99
2018-12-07T02:08:26.730Z,99.99
2018-12-07T02:09:36.526Z,99.99
2018-12-07T02:10:46.575Z,99.99
2018-12-07T02:11:56.632Z,99.99
2018-12-07T02:13:06.685Z,99.99
2018-12-07T02:14:16.493Z,99.99
2018-12-07T02:15:26.547Z,99.99
2018-12-07T02:16:36.596Z,99.99
2018-12-07T02:17:46.666Z,99.99
2018-12-07T02:18:56.733Z,99.99
2018-12-07T02:20:06.539Z,99.99
2018-12-07T02:21:16.594Z,99.99
2018-12-07T02:22:26.731Z,99.99
2018-12-07T02:23:36.541Z,99.99
2018-12-07T02:24:46.343Z,99.99
2018-12-07T02:25:56.253Z,99.99
2018-12-07T02:27:06.326Z,99.99
2018-12-07T02:28:16.138Z,99.99
2018-12-07T02:29:25.941Z,99.99
2018-12-07T02:30:35.995Z,99.99
2018-12-07T02:31:46.110Z,99.99
2018-12-07T02:32:56.192Z,99.99
2018-12-07T02:34:06.263Z,99.99
2018-12-07T02:35:16.315Z,99.99
2018-12-07T02:36:26.395Z,99.99
2018-12-07T02:37:36.221Z,99.99
2018-12-07T02:38:46.009Z,99.99
2018-12-07T02:39:55.821Z,99.99
2018-12-07T02:41:07.873Z,99.99
2018-12-07T02:42:17.960Z,99.99
2018-12-07T02:43:27.512Z,99.99
2018-12-07T02:44:37.566Z,99.99
2018-12-07T02:45:47.646Z,99.99
2018-12-07T02:46:57.709Z,99.99
2018-12-07T02:48:07.794Z,99.99
2018-12-07T02:49:17.847Z,99.99
2018-12-07T02:50:27.666Z,99.99
2018-12-07T02:51:37.458Z,99.99
2018-12-07T02:52:47.520Z,99.99
2018-12-07T02:53:57.572Z,99.99
2018-12-07T02:55:07.413Z,99.99
2018-12-07T02:56:17.214Z,99.99
2018-12-07T02:57:27.282Z,99.99
2018-12-07T02:58:37.342Z,99.99
2018-12-07T02:59:47.385Z,99.99
2018-12-07T03:00:57.423Z,99.99
2018-12-07T03:02:07.212Z,99.99
2018-12-07T03:34:22.533Z,95.45
2018-12-07T03:35:32.336Z,95.26
2018-12-07T03:36:42.417Z,96.03
2018-12-07T03:37:52.462Z,97.92
2018-12-07T03:39:03.752Z,98.58
2018-12-07T03:40:13.917Z,99.25
2018-12-07T03:41:23.965Z,99.82
2018-12-07T03:42:34.009Z,99.99
2018-12-07T03:43:44.074Z,99.99
2018-12-07T03:44:54.120Z,99.99
2018-12-07T03:46:04.229Z,99.99
2018-12-07T03:47:14.345Z,99.99
2018-12-07T03:48:24.157Z,99.99
2018-12-07T03:49:34.234Z,99.99
2018-12-07T03:50:44.041Z,99.99
2018-12-07T03:51:54.138Z,99.99
2018-12-07T03:53:04.195Z,99.99
2018-12-07T03:54:14.259Z,99.99
2018-12-07T03:55:24.340Z,99.99
2018-12-07T03:56:34.401Z,99.99
2018-12-07T03:57:44.261Z,99.99
2018-12-07T03:58:54.308Z,99.99
2018-12-07T04:00:04.505Z,99.99
2018-12-07T04:01:14.575Z,99.99
2018-12-07T04:02:24.474Z,99.99
2018-12-07T04:03:34.585Z,99.99
2018-12-07T04:04:44.871Z,99.99
2018-12-07T04:05:54.694Z,99.99
2018-12-07T04:07:04.875Z,99.99
2018-12-07T04:08:14.677Z,99.99
2018-12-07T04:09:24.757Z,99.99
2018-12-07T04:10:34.813Z,99.99
2018-12-07T04:11:44.868Z,99.99
2018-12-07T04:12:54.668Z,99.99
2018-12-07T04:14:05.248Z,99.99
2018-12-07T04:15:15.316Z,99.99
2018-12-07T04:16:25.382Z,99.99
2018-12-07T04:17:35.545Z,99.99
2018-12-07T04:18:45.609Z,99.99
2018-12-07T04:19:55.662Z,99.99
2018-12-07T04:21:08.716Z,99.99
2018-12-07T04:22:18.773Z,99.99
2018-12-07T04:23:28.593Z,99.99
2018-12-07T04:24:38.189Z,99.99
2018-12-07T04:25:48.284Z,99.99
2018-12-07T04:26:58.469Z,99.99
2018-12-07T04:28:08.833Z,99.99
2018-12-07T04:29:18.889Z,99.99
2018-12-07T04:30:29.034Z,99.99
2018-12-07T04:31:39.089Z,99.99
2018-12-07T04:32:48.896Z,99.99
2018-12-07T04:33:58.994Z,99.99
2018-12-07T04:35:08.797Z,99.99
2018-12-07T04:36:18.862Z,99.99
2018-12-07T04:37:29.041Z,99.99
2018-12-07T04:38:39.147Z,99.99
2018-12-07T04:39:49.220Z,99.99
2018-12-07T04:40:59.303Z,99.99
2018-12-07T04:42:09.349Z,99.99
2018-12-07T04:43:18.899Z,99.99
2018-12-07T04:44:28.972Z,99.99
2018-12-07T04:45:39.026Z,99.99
2018-12-07T04:46:49.100Z,99.99
2018-12-07T04:47:59.261Z,99.99
2018-12-07T04:49:10.164Z,99.99
2018-12-07T04:50:19.966Z,99.99
2018-12-07T04:51:30.125Z,99.99
2018-12-07T04:52:40.222Z,99.99
2018-12-07T04:53:50.015Z,99.99
2018-12-07T04:55:00.082Z,99.99
2018-12-07T04:56:10.156Z,99.99
2018-12-07T04:57:20.223Z,99.99
2018-12-07T04:58:30.321Z,99.99
2018-12-07T04:59:40.137Z,99.99
2018-12-07T05:00:50.215Z,99.99
2018-12-07T05:02:01.271Z,99.99
2018-12-07T05:03:11.369Z,99.99
2018-12-07T05:04:21.429Z,99.99
2018-12-07T05:05:31.498Z,99.99
2018-12-07T05:06:41.543Z,99.99
2018-12-07T05:07:51.653Z,99.99
2018-12-07T05:09:01.731Z,99.99
2018-12-07T05:10:11.809Z,99.99
2018-12-07T05:11:21.628Z,99.99
2018-12-07T05:12:31.441Z,99.99
2018-12-07T05:13:41.545Z,99.99
2018-12-07T05:14:51.388Z,99.99
2018-12-07T05:16:02.953Z,99.99
2018-12-07T05:17:13.050Z,99.99
2018-12-07T05:18:22.645Z,99.99
2018-12-07T05:19:32.440Z,99.99
2018-12-07T05:20:42.363Z,99.99
2018-12-07T05:21:52.174Z,99.99
2018-12-07T05:23:02.241Z,99.99
2018-12-07T05:24:12.312Z,99.99
2018-12-07T05:25:22.373Z,99.99
2018-12-07T05:26:32.184Z,99.99
2018-12-07T05:27:42.280Z,99.99
2018-12-07T05:28:52.347Z,99.99
2018-12-07T05:30:03.191Z,99.99
2018-12-07T05:31:13.266Z,99.99
2018-12-07T05:32:23.351Z,99.99
2018-12-07T05:33:33.513Z,99.99
2018-12-07T05:34:43.074Z,99.99
2018-12-07T05:35:52.872Z,99.99
2018-12-07T05:37:02.952Z,99.99
2018-12-07T05:38:13.025Z,99.99
2018-12-07T05:39:23.142Z,99.99
2018-12-07T05:40:33.434Z,99.99
2018-12-07T05:41:43.540Z,99.99
2018-12-07T05:42:53.649Z,99.99
2018-12-07T05:44:03.730Z,99.99
2018-12-07T05:45:13.807Z,99.99
2018-12-07T05:46:23.853Z,99.99
2018-12-07T05:47:33.938Z,99.99
2018-12-07T05:48:44.107Z,99.99
2018-12-07T05:49:54.161Z,99.99
2018-12-07T05:51:04.225Z,99.99
2018-12-07T05:52:14.025Z,99.99
2018-12-07T05:53:24.077Z,99.99
2018-12-07T05:54:34.130Z,99.99
2018-12-07T05:55:44.200Z,99.99
2018-12-07T05:56:54.002Z,99.99
2018-12-07T05:58:03.935Z,99.99
2018-12-07T05:59:13.997Z,99.99
2018-12-07T06:00:23.792Z,99.99
2018-12-07T06:01:33.858Z,99.99
2018-12-07T06:02:43.919Z,99.99
2018-12-07T06:03:53.733Z,99.99
2018-12-07T06:05:04.095Z,99.99
2018-12-07T06:06:14.148Z,99.99
2018-12-07T06:07:24.188Z,99.99
2018-12-07T06:08:34.248Z,99.99
2018-12-07T06:09:44.060Z,99.99
2018-12-07T06:10:53.662Z,99.99
2018-12-07T06:12:04.709Z,99.99
2018-12-07T06:13:14.773Z,99.99
2018-12-07T06:14:24.844Z,99.99
2018-12-07T06:15:34.911Z,99.99
2018-12-07T06:16:44.982Z,99.99
2018-12-07T06:17:55.044Z,99.99
2018-12-07T06:19:05.107Z,99.99
2018-12-07T06:20:14.937Z,99.99
2018-12-07T06:21:24.989Z,99.99
2018-12-07T06:22:35.054Z,99.99
2018-12-07T06:23:44.873Z,99.99
2018-12-07T06:24:54.931Z,99.99
2018-12-07T06:26:04.998Z,99.99
2018-12-07T06:27:15.066Z,99.99
2018-12-07T06:28:24.998Z,99.99
2018-12-07T06:29:34.545Z,99.99
2018-12-07T06:30:44.619Z,99.99
2018-12-07T06:31:54.688Z,99.99
2018-12-07T06:33:04.513Z,99.99
2018-12-07T06:34:14.619Z,99.99
2018-12-07T06:35:24.688Z,99.99
2018-12-07T06:36:34.741Z,99.99
2018-12-07T06:37:44.800Z,99.99
2018-12-07T06:38:54.858Z,99.99
2018-12-07T06:40:04.939Z,99.99
2018-12-07T06:41:15.002Z,99.99
2018-12-07T06:42:25.057Z,99.99
2018-12-07T06:43:34.851Z,99.99
2018-12-07T06:44:44.646Z,99.99
2018-12-07T06:45:54.756Z,99.99
2018-12-07T06:47:04.842Z,99.99
2018-12-07T06:48:14.942Z,99.99
2018-12-07T06:49:24.998Z,99.99
2018-12-07T06:50:34.881Z,99.99
2018-12-07T06:51:44.687Z,99.99
2018-12-07T06:52:54.748Z,99.99
2018-12-07T06:54:04.893Z,99.99
2018-12-07T06:55:15.000Z,99.99
2018-12-07T06:56:24.809Z,99.99
2018-12-07T06:57:34.861Z,99.99
2018-12-07T06:58:44.411Z,99.99
2018-12-07T06:59:54.484Z,99.99
2018-12-07T07:01:06.236Z,99.99
2018-12-07T07:02:16.418Z,99.99
2018-12-07T07:03:26.488Z,99.99
2018-12-07T07:04:36.545Z,99.99
2018-12-07T07:05:46.096Z,99.99
2018-12-07T07:06:56.143Z,99.99
2018-12-07T07:08:06.206Z,99.99
2018-12-07T07:09:16.375Z,99.99
2018-12-07T07:10:26.483Z,99.99
2018-12-07T07:11:36.561Z,99.99
2018-12-07T07:12:46.618Z,99.99
2018-12-07T07:13:56.683Z,99.99
2018-12-07T07:15:06.789Z,99.99
2018-12-07T07:16:23.010Z,99.99
2018-12-07T07:17:33.398Z,99.99
2018-12-07T07:18:43.452Z,99.99
2018-12-07T07:19:53.519Z,99.99
2018-12-07T07:21:03.587Z,99.99
2018-12-07T07:22:13.440Z,99.99
2018-12-07T07:23:23.490Z,99.99
2018-12-07T07:24:33.562Z,99.99
2018-12-07T07:25:43.618Z,99.99
2018-12-07T07:26:53.680Z,99.99
2018-12-07T07:28:04.149Z,99.99
2018-12-07T07:29:14.216Z,99.99
2018-12-07T07:30:24.280Z,99.99
2018-12-07T07:31:34.371Z,99.99
2018-12-07T07:32:50.735Z,99.99
2018-12-07T07:34:00.535Z,99.99
2018-12-07T07:35:10.591Z,99.99
2018-12-07T07:36:20.674Z,99.99
2018-12-07T07:37:30.738Z,99.99
2018-12-07T07:38:40.791Z,99.99
2018-12-07T07:39:50.844Z,99.99
2018-12-07T07:41:01.039Z,99.99
2018-12-07T07:42:11.110Z,99.99
2018-12-07T07:43:21.155Z,99.99
2018-12-07T07:44:31.209Z,99.99
2018-12-07T07:45:40.747Z,99.99
2018-12-07T07:46:50.826Z,99.99
2018-12-07T07:48:00.627Z,99.99
2018-12-07T07:49:10.672Z,99.99
2018-12-07T07:50:20.730Z,99.99
2018-12-07T07:51:30.286Z,99.99
2018-12-07T07:52:40.355Z,99.99
2018-12-07T07:53:50.422Z,99.99
2018-12-07T07:55:00.505Z,99.99
2018-12-07T07:56:17.682Z,99.99
2018-12-07T07:57:27.719Z,99.99
2018-12-07T07:58:37.791Z,99.99
2018-12-07T07:59:47.594Z,99.99
2018-12-07T08:00:57.660Z,99.99
2018-12-07T08:02:07.730Z,99.99
2018-12-07T08:03:17.542Z,99.99
2018-12-07T08:04:27.619Z,99.99
2018-12-07T08:05:37.425Z,99.99
2018-12-07T08:06:47.539Z,99.99
2018-12-07T08:07:58.132Z,99.99
2018-12-07T08:09:08.221Z,99.99
2018-12-07T08:10:18.036Z,99.99
2018-12-07T08:11:28.099Z,99.99
2018-12-07T08:12:37.886Z,99.99
2018-12-07T08:13:47.500Z,99.99
2018-12-07T08:14:57.574Z,99.99
2018-12-07T08:16:07.679Z,99.99
2018-12-07T08:17:17.493Z,99.99
2018-12-07T08:18:27.284Z,99.99
2018-12-07T08:19:37.424Z,99.99
2018-12-07T08:20:47.561Z,99.99
2018-12-07T08:21:57.700Z,99.99
2018-12-07T08:23:14.441Z,99.99
2018-12-07T08:24:24.701Z,99.99
2018-12-07T08:25:34.773Z,99.99
2018-12-07T08:26:44.673Z,99.99
2018-12-07T08:27:54.739Z,99.99
2018-12-07T08:29:04.821Z,99.99
2018-12-07T08:30:14.690Z,99.99
2018-12-07T08:31:24.490Z,99.99
2018-12-07T08:32:34.536Z,99.99
2018-12-07T08:33:44.602Z,99.99
2018-12-07T08:34:54.652Z,99.99
2018-12-07T08:36:04.446Z,99.99
2018-12-07T08:37:14.524Z,99.99
2018-12-07T08:38:24.311Z,99.99
2018-12-07T08:39:33.874Z,99.99
2018-12-07T08:40:43.978Z,99.99
2018-12-07T08:41:54.043Z,99.99
2018-12-07T08:43:09.772Z,99.99
2018-12-07T08:44:19.826Z,99.99
2018-12-07T08:45:29.648Z,99.99
2018-12-07T08:46:39.714Z,99.99
2018-12-07T08:47:49.828Z,99.99
2018-12-07T08:48:59.929Z,99.99
2018-12-07T08:50:10.063Z,99.99
2018-12-07T08:51:19.908Z,99.99
2018-12-07T08:52:30.005Z,99.99
2018-12-07T08:53:40.106Z,99.99
2018-12-07T08:54:50.187Z,99.99
2018-12-07T08:56:00.115Z,99.99
2018-12-07T08:57:10.215Z,99.99
2018-12-07T08:58:20.315Z,99.99
2018-12-07T08:59:30.408Z,99.99
2018-12-07T09:00:40.507Z,99.99
2018-12-07T09:01:50.611Z,99.99
2018-12-07T09:03:00.772Z,99.99
2018-12-07T09:04:10.881Z,99.99
2018-12-07T09:05:20.966Z,99.99
2018-12-07T09:06:31.073Z,99.99
2018-12-07T09:07:41.170Z,99.99
2018-12-07T09:08:51.304Z,99.99
2018-12-07T09:10:01.398Z,99.99
2018-12-07T09:11:11.501Z,99.99
2018-12-07T09:12:21.354Z,99.99
2018-12-07T09:13:31.470Z,99.98
2018-12-07T09:14:41.577Z,99.99
2018-12-07T09:15:51.676Z,99.99
2018-12-07T09:17:01.765Z,99.79
2018-12-07T09:18:11.856Z,99.94
2018-12-07T09:19:21.963Z,99.65
2018-12-07T09:20:31.843Z,99.37
2018-12-07T09:21:41.940Z,99.04
2018-12-07T09:22:52.051Z,99.6
2018-12-07T09:24:01.889Z,99.99
2018-12-07T09:25:11.755Z,99.41
2018-12-07T09:26:21.678Z,99.51
2018-12-07T09:27:31.809Z,99.7
2018-12-07T09:28:41.886Z,99.7
2018-12-07T09:29:51.974Z,99.8
2018-12-07T09:31:02.041Z,99.8
2018-12-07T09:32:11.846Z,99.6
2018-12-07T09:33:21.922Z,99.75
2018-12-07T09:34:31.992Z,99.95
2018-12-07T09:35:42.051Z,99.95
2018-12-07T09:36:52.138Z,99.99
2018-12-07T09:38:02.453Z,99.66
2018-12-07T09:39:18.547Z,99.46
2018-12-07T09:40:28.605Z,99.85
2018-12-07T09:41:38.647Z,99.85
2018-12-07T09:42:48.704Z,99.71
2018-12-07T09:43:58.756Z,99.99
2018-12-07T09:45:08.593Z,99.99
2018-12-07T09:46:18.657Z,99.8
2018-12-07T09:47:28.728Z,99.9
2018-12-07T09:48:38.793Z,99.99
2018-12-07T09:49:48.874Z,99.66
2018-12-07T09:50:58.951Z,99.99
2018-12-07T09:52:08.756Z,99.66
2018-12-07T09:53:18.561Z,99.85
2018-12-07T09:54:28.631Z,99.8
2018-12-07T09:55:38.739Z,99.62
2018-12-07T09:56:48.826Z,99.62
2018-12-07T09:57:58.898Z,99.71
2018-12-07T09:59:09.105Z,99.71
2018-12-07T10:00:19.219Z,99.33
2018-12-07T10:01:29.385Z,99.8
2018-12-07T10:02:39.515Z,99.71
2018-12-07T10:03:49.629Z,99.9
2018-12-07T10:04:59.721Z,99.8
2018-12-07T10:06:09.815Z,99.9
2018-12-07T10:07:19.938Z,99.9
2018-12-07T10:08:29.817Z,99.71
2018-12-07T10:09:39.909Z,99.99
2018-12-07T10:10:49.976Z,99.99
2018-12-07T10:11:59.812Z,99.99
2018-12-07T10:13:10.589Z,99.99
2018-12-07T10:14:20.690Z,99.99
2018-12-07T10:15:30.796Z,99.99
2018-12-07T10:16:40.902Z,99.99
2018-12-07T10:17:50.995Z,99.99
2018-12-07T10:19:01.139Z,99.99
2018-12-07T10:20:11.232Z,99.99
2018-12-07T10:21:21.326Z,99.99
2018-12-07T10:22:31.424Z,99.99
2018-12-07T10:23:43.281Z,99.99
2018-12-07T10:24:53.140Z,99.99
2018-12-07T10:26:02.978Z,99.99
2018-12-07T10:27:13.077Z,99.99
2018-12-07T10:28:23.164Z,99.99
2018-12-07T10:29:33.261Z,99.99
2018-12-07T10:30:44.146Z,99.99
2018-12-07T10:31:54.271Z,99.99
2018-12-07T10:33:04.324Z,99.99
2018-12-07T10:34:14.416Z,99.99
2018-12-07T10:35:23.953Z,99.99
2018-12-07T10:36:34.979Z,99.99
2018-12-07T10:37:44.791Z,99.99
2018-12-07T10:38:54.869Z,99.99
2018-12-07T10:40:05.009Z,99.99
2018-12-07T10:41:14.572Z,99.99
2018-12-07T10:42:24.703Z,99.99
2018-12-07T10:43:34.779Z,99.99
2018-12-07T10:44:44.377Z,99.99
2018-12-07T10:45:54.470Z,99.99
2018-12-07T10:47:04.540Z,99.99
2018-12-07T10:48:14.692Z,99.99
2018-12-07T10:49:24.772Z,99.99
2018-12-07T10:50:35.631Z,99.99
2018-12-07T10:51:45.709Z,99.99
2018-12-07T10:52:55.859Z,99.99
2018-12-07T10:54:05.728Z,99.99
2018-12-07T10:55:15.544Z,99.99
2018-12-07T10:56:25.620Z,99.99
2018-12-07T10:57:35.421Z,99.99
2018-12-07T10:58:45.502Z,99.99
2018-12-07T10:59:55.335Z,99.99
2018-12-07T11:01:05.611Z,99.99
2018-12-07T11:02:15.674Z,99.99
2018-12-07T11:03:25.760Z,99.99
2018-12-07T11:04:35.821Z,99.99
2018-12-07T11:05:45.878Z,99.99
2018-12-07T11:06:55.724Z,99.99
2018-12-07T11:08:08.126Z,99.99
2018-12-07T11:09:17.950Z,99.99
2018-12-07T11:10:28.011Z,99.99
2018-12-07T11:11:38.061Z,99.99
2018-12-07T11:12:47.613Z,99.99
2018-12-07T11:13:57.444Z,99.99
2018-12-07T11:15:07.271Z,99.99
2018-12-07T11:16:17.379Z,99.99
2018-12-07T11:17:27.487Z,99.99
2018-12-07T11:18:37.567Z,99.99
2018-12-07T11:19:47.650Z,99.99
2018-12-07T11:20:57.463Z,99.99
2018-12-07T11:22:07.608Z,99.99
2018-12-07T11:23:17.728Z,99.99
2018-12-07T11:24:27.842Z,99.99
2018-12-07T11:25:37.947Z,99.99
2018-12-07T11:26:48.033Z,99.99
2018-12-07T11:27:58.101Z,99.99
2018-12-07T11:29:11.257Z,99.99
2018-12-07T11:30:21.345Z,99.99
2018-12-07T11:31:31.428Z,99.99
2018-12-07T11:32:41.506Z,99.99
2018-12-07T11:33:51.627Z,99.99
2018-12-07T11:35:02.350Z,99.99
2018-12-07T11:36:12.405Z,99.99
2018-12-07T11:37:22.944Z,99.99
2018-12-07T11:38:34.197Z,99.99
2018-12-07T11:39:45.017Z,99.99
2018-12-07T11:40:55.415Z,99.99
2018-12-07T11:42:05.704Z,99.99
2018-12-07T11:43:15.906Z,99.99
2018-12-07T11:44:26.054Z,99.99
2018-12-07T11:45:36.484Z,99.99
2018-12-07T11:46:47.434Z,99.99
2018-12-07T11:47:57.504Z,99.99
2018-12-07T11:49:07.628Z,99.99
2018-12-07T11:50:18.398Z,99.99
2018-12-07T11:51:30.206Z,99.99
2018-12-07T11:52:40.282Z,99.99
2018-12-07T11:53:50.412Z,99.99
2018-12-07T11:55:00.492Z,99.99
2018-12-07T11:56:10.324Z,99.99
2018-12-07T11:57:20.411Z,99.99
2018-12-07T11:58:30.543Z,99.99
2018-12-07T11:59:40.657Z,99.99
2018-12-07T12:00:50.827Z,99.99
2018-12-07T12:02:00.892Z,99.99
2018-12-07T12:03:10.727Z,99.99
2018-12-07T12:04:20.869Z,99.99
2018-12-07T12:05:30.954Z,99.99
2018-12-07T12:06:41.050Z,99.99
2018-12-07T12:07:50.646Z,99.99
2018-12-07T12:09:03.262Z,99.99
2018-12-07T12:10:13.403Z,99.99
2018-12-07T12:11:23.040Z,99.99
2018-12-07T12:12:32.855Z,99.99
2018-12-07T12:13:43.008Z,99.99
2018-12-07T12:14:53.094Z,99.99
2018-12-07T12:16:03.872Z,99.99
2018-12-07T12:17:13.743Z,99.99
2018-12-07T12:18:23.820Z,99.99
2018-12-07T12:19:33.910Z,99.99
2018-12-07T12:20:43.971Z,99.99
2018-12-07T12:21:54.037Z,99.99
2018-12-07T12:23:04.109Z,99.99
2018-12-07T12:24:13.938Z,99.99
2018-12-07T12:25:24.020Z,99.99
2018-12-07T12:26:33.871Z,99.99
2018-12-07T12:27:43.746Z,99.99
2018-12-07T12:28:53.873Z,99.99
2018-12-07T12:30:06.008Z,99.99
2018-12-07T12:31:15.819Z,99.99
2018-12-07T12:32:25.923Z,99.99
2018-12-07T12:33:36.044Z,99.99
2018-12-07T12:34:46.219Z,99.99
2018-12-07T12:35:56.333Z,99.99
2018-12-07T12:37:06.399Z,99.99
2018-12-07T12:38:16.572Z,99.99
2018-12-07T12:39:26.679Z,99.99
2018-12-07T12:40:36.543Z,99.99
2018-12-07T12:41:49.377Z,99.99
2018-12-07T12:42:59.432Z,99.99
2018-12-07T12:44:09.007Z,99.99
2018-12-07T12:45:19.104Z,99.99
2018-12-07T12:46:28.931Z,99.99
2018-12-07T12:47:39.003Z,99.99
2018-12-07T12:48:49.084Z,99.99
2018-12-07T12:49:59.172Z,99.99
2018-12-07T12:51:09.315Z,99.99
2018-12-07T12:52:19.376Z,99.99
2018-12-07T12:53:29.184Z,99.99
2018-12-07T12:54:39.280Z,99.99
2018-12-07T12:55:49.406Z,99.99
2018-12-07T12:56:59.266Z,99.99
2018-12-07T12:58:09.319Z,99.99
2018-12-07T12:59:19.418Z,99.99
2018-12-07T13:00:29.479Z,99.99
2018-12-07T13:01:39.534Z,99.99
2018-12-07T13:02:49.346Z,99.99
2018-12-07T13:03:59.486Z,99.99
2018-12-07T13:05:09.554Z,99.99
2018-12-07T13:06:19.621Z,99.99
2018-12-07T13:07:29.444Z,99.99
2018-12-07T13:08:39.524Z,99.99
2018-12-07T13:09:49.493Z,99.99
2018-12-07T13:10:59.547Z,99.99
2018-12-07T13:12:10.117Z,99.99
2018-12-07T13:13:20.187Z,99.99
2018-12-07T13:14:30.315Z,99.99
2018-12-07T13:15:40.409Z,99.99
2018-12-07T13:16:50.486Z,99.99
2018-12-07T13:18:01.599Z,99.99
2018-12-07T13:19:11.676Z,99.99
2018-12-07T13:20:21.782Z,99.99
2018-12-07T13:21:31.865Z,99.99
2018-12-07T13:22:41.940Z,99.99
2018-12-07T13:23:52.007Z,99.99
2018-12-07T13:25:01.871Z,99.99
2018-12-07T13:26:11.937Z,99.99
2018-12-07T13:27:22.103Z,99.99
2018-12-07T13:28:32.185Z,99.99
2018-12-07T13:29:42.016Z,99.99
2018-12-07T13:30:51.813Z,99.99
2018-12-07T13:32:01.944Z,99.99
2018-12-07T13:33:11.998Z,99.99
2018-12-07T13:34:22.063Z,99.99
2018-12-07T13:35:32.161Z,99.99
2018-12-07T13:36:42.230Z,99.99
2018-12-07T13:37:52.350Z,99.99
2018-12-07T13:39:02.409Z,99.99
2018-12-07T13:40:12.515Z,99.99
2018-12-07T13:41:23.067Z,99.99
2018-12-07T13:42:33.460Z,99.99
2018-12-07T13:43:43.944Z,99.99
2018-12-07T13:44:54.682Z,99.99
2018-12-07T13:46:05.675Z,99.99
2018-12-07T13:47:16.970Z,99.99
2018-12-07T13:48:27.694Z,99.99
2018-12-07T13:49:38.221Z,99.99
2018-12-07T13:50:48.183Z,99.99
2018-12-07T13:51:58.906Z,99.99
2018-12-07T13:53:09.697Z,99.99
2018-12-07T13:54:20.425Z,99.99
2018-12-07T13:55:31.212Z,99.99
2018-12-07T13:56:41.621Z,99.99
2018-12-07T13:57:52.033Z,99.99
2018-12-07T13:59:05.831Z,99.99
2018-12-07T14:00:16.577Z,99.99
2018-12-07T14:01:27.049Z,99.99
2018-12-07T14:02:38.473Z,99.99
2018-12-07T14:03:49.048Z,99.99
2018-12-07T14:04:59.753Z,99.99
2018-12-07T14:06:10.235Z,99.99
2018-12-07T14:07:20.327Z,99.99
2018-12-07T14:08:30.846Z,99.99
2018-12-07T14:09:41.759Z,99.99
2018-12-07T14:10:52.383Z,99.99
2018-12-07T14:12:02.843Z,99.99
2018-12-07T14:13:13.003Z,99.99
2018-12-07T14:14:23.494Z,99.99
2018-12-07T14:15:34.341Z,99.99
2018-12-07T14:16:44.871Z,99.99
2018-12-07T14:17:55.265Z,99.99
2018-12-07T14:19:06.301Z,99.99
2018-12-07T14:20:17.224Z,99.99
2018-12-07T14:21:27.724Z,99.99
2018-12-07T14:22:38.016Z,99.99
2018-12-07T14:23:48.761Z,99.99
2018-12-07T14:24:59.430Z,99.99
2018-12-07T14:26:09.916Z,99.99
2018-12-07T14:27:20.601Z,99.99
2018-12-07T14:28:31.257Z,99.99
2018-12-07T14:29:41.596Z,99.99
2018-12-07T14:30:52.302Z,99.99
2018-12-07T14:32:03.107Z,99.99
2018-12-07T14:33:13.791Z,99.99
2018-12-07T14:34:24.496Z,99.99
2018-12-07T14:35:34.724Z,99.99
2018-12-07T14:36:45.438Z,99.99
2018-12-07T14:37:55.587Z,99.99
2018-12-07T14:39:06.135Z,99.99
2018-12-07T14:40:16.955Z,99.99
2018-12-07T14:41:27.549Z,99.99
2018-12-07T14:42:38.108Z,99.99
2018-12-07T14:43:48.625Z,99.99
2018-12-07T14:44:59.199Z,99.99
2018-12-07T14:46:09.881Z,99.99
2018-12-07T14:47:20.314Z,99.99
2018-12-07T14:48:30.929Z,99.99
2018-12-07T14:49:41.292Z,99.99
2018-12-07T14:50:51.757Z,99.99
2018-12-07T14:52:02.461Z,99.99
2018-12-07T14:53:12.968Z,99.99
2018-12-07T14:54:23.563Z,99.99
2018-12-07T14:55:34.068Z,99.99
2018-12-07T14:56:44.485Z,99.99
2018-12-07T14:57:55.267Z,99.99
2018-12-07T14:59:08.772Z,99.99
2018-12-07T15:00:19.029Z,99.99
2018-12-07T15:01:29.770Z,99.99
2018-12-07T15:02:39.967Z,99.99
2018-12-07T15:03:50.887Z,99.99
2018-12-07T15:05:01.553Z,99.99
2018-12-07T15:06:12.244Z,99.99
2018-12-07T15:07:23.532Z,99.99
2018-12-07T15:08:34.286Z,99.99
2018-12-07T15:09:44.955Z,99.99
2018-12-07T15:10:55.517Z,99.99
2018-12-07T15:12:07.134Z,99.99
2018-12-07T15:13:17.667Z,99.99
2018-12-07T15:14:28.224Z,99.99
2018-12-07T15:15:39.205Z,99.99
2018-12-07T15:16:49.596Z,99.99
2018-12-07T15:17:59.820Z,99.99
2018-12-07T15:19:10.293Z,99.99
2018-12-07T15:20:20.196Z,99.99
2018-12-07T15:21:30.569Z,99.99
2018-12-07T15:22:40.826Z,99.99
2018-12-07T15:23:50.971Z,99.99
2018-12-07T15:25:01.444Z,99.99
2018-12-07T15:26:12.260Z,99.99
2018-12-07T15:27:23.106Z,99.99
2018-12-07T15:28:33.976Z,99.99
2018-12-07T15:29:44.348Z,99.99
2018-12-07T15:30:55.053Z,99.99
2018-12-07T15:32:05.991Z,99.99
2018-12-07T15:33:17.023Z,99.99
2018-12-07T15:34:27.866Z,99.99
2018-12-07T15:35:38.656Z,99.99
2018-12-07T15:36:49.296Z,99.99